createdAt,value
2018-11-21T00:00:14.087Z,21.50
2018-11-21T00:02:42.534Z,21.50
2018-11-21T00:05:10.926Z,21.50
2018-11-21T00:07:39.377Z,21.40
2018-11-21T00:10:10.001Z,21.40
2018-11-21T00:12:39.026Z,21.40
2018-11-21T00:15:09.189Z,21.30
2018-11-21T00:17:37.559Z,21.30
2018-11-21T00:20:07.366Z,21.20
2018-11-21T00:22:35.713Z,21.20
2018-11-21T00:25:04.097Z,21.10
2018-11-21T00:27:32.682Z,21.10
2018-11-21T00:30:01.030Z,21.00
2018-11-21T00:32:29.488Z,21.00
2018-11-21T00:34:58.116Z,20.90
2018-11-21T00:37:29.390Z,20.90
2018-11-21T00:39:57.732Z,20.90
2018-11-21T00:42:26.094Z,20.80
2018-11-21T00:44:54.598Z,20.80
2018-11-21T00:47:22.903Z,20.70
2018-11-21T00:49:51.281Z,20.70
2018-11-21T00:52:19.695Z,20.70
2018-11-21T00:54:48.098Z,20.60
2018-11-21T00:57:16.464Z,20.60
2018-11-21T00:59:44.825Z,20.60
2018-11-21T01:02:13.301Z,20.60
2018-11-21T01:04:41.697Z,20.50
2018-11-21T01:07:10.092Z,20.50
2018-11-21T01:09:38.430Z,20.50
2018-11-21T01:12:06.814Z,20.40
2018-11-21T01:14:35.305Z,20.40
2018-11-21T01:17:03.833Z,20.40
2018-11-21T01:19:32.177Z,20.30
2018-11-21T01:22:00.562Z,20.30
2018-11-21T01:24:28.924Z,20.30
2018-11-21T01:26:57.248Z,20.30
2018-11-21T01:29:25.658Z,20.20
2018-11-21T01:31:54.394Z,20.20
2018-11-21T01:34:22.762Z,20.20
2018-11-21T01:36:51.198Z,20.20
2018-11-21T01:39:19.559Z,20.20
2018-11-21T01:41:48.300Z,20.10
2018-11-21T01:44:16.641Z,20.10
2018-11-21T01:46:47.899Z,20.10
2018-11-21T01:49:16.287Z,20.10
2018-11-21T01:51:44.723Z,20.10
2018-11-21T01:54:13.070Z,20.10
2018-11-21T01:56:41.419Z,20.00
2018-11-21T01:59:10.402Z,20.00
2018-11-21T02:01:38.931Z,20.00
2018-11-21T02:04:07.326Z,20.00
2018-11-21T02:06:35.877Z,19.90
2018-11-21T02:09:07.667Z,19.90
2018-11-21T02:11:36.059Z,19.90
2018-11-21T02:14:04.410Z,19.80
2018-11-21T02:16:32.885Z,19.80
2018-11-21T02:19:01.244Z,19.80
2018-11-21T02:21:29.586Z,19.80
2018-11-21T02:23:57.972Z,19.80
2018-11-21T02:26:26.866Z,19.70
2018-11-21T02:28:55.201Z,19.70
2018-11-21T02:31:23.525Z,19.70
2018-11-21T02:33:51.904Z,19.70
2018-11-21T02:36:20.342Z,19.70
2018-11-21T02:38:48.844Z,19.60
2018-11-21T02:41:17.239Z,19.60
2018-11-21T02:43:45.798Z,19.60
2018-11-21T02:46:14.303Z,19.60
2018-11-21T02:48:44.236Z,19.60
2018-11-21T02:51:12.909Z,19.50
2018-11-21T02:53:41.258Z,19.50
2018-11-21T02:56:11.349Z,19.50
2018-11-21T02:58:39.746Z,19.50
2018-11-21T03:01:08.045Z,19.40
2018-11-21T03:03:36.544Z,19.40
2018-11-21T03:06:04.889Z,19.40
2018-11-21T03:08:33.256Z,19.40
2018-11-21T03:11:01.636Z,19.40
2018-11-21T03:13:29.973Z,19.40
2018-11-21T03:15:58.345Z,19.40
2018-11-21T03:18:27.204Z,19.30
2018-11-21T03:20:55.703Z,19.30
2018-11-21T03:23:24.046Z,19.30
2018-11-21T03:25:52.396Z,19.30
2018-11-21T03:28:20.772Z,19.30
2018-11-21T03:30:49.139Z,19.30
2018-11-21T03:33:17.462Z,19.20
2018-11-21T03:35:45.860Z,19.20
2018-11-21T03:38:14.433Z,19.20
2018-11-21T03:40:42.815Z,19.20
2018-11-21T03:43:11.167Z,19.20
2018-11-21T03:45:39.653Z,19.10
2018-11-21T03:48:08.308Z,19.10
2018-11-21T03:50:36.665Z,19.10
2018-11-21T03:53:05.180Z,19.10
2018-11-21T03:55:33.519Z,19.10
2018-11-21T03:58:01.879Z,19.10
2018-11-21T04:00:30.230Z,19.10
2018-11-21T04:02:58.599Z,19.10
2018-11-21T04:05:27.073Z,19.10
2018-11-21T04:07:55.450Z,19.00
2018-11-21T04:10:23.977Z,19.00
2018-11-21T04:12:52.315Z,19.00
2018-11-21T04:15:20.655Z,19.00
2018-11-21T04:17:49.029Z,19.00
2018-11-21T04:20:20.255Z,19.00
2018-11-21T04:22:48.588Z,19.00
2018-11-21T04:25:19.840Z,18.90
2018-11-21T04:27:48.332Z,18.90
2018-11-21T04:30:16.661Z,18.90
2018-11-21T04:32:45.087Z,18.90
2018-11-21T04:35:13.473Z,18.90
2018-11-21T04:37:42.084Z,18.80
2018-11-21T04:40:10.444Z,18.90
2018-11-21T04:42:38.980Z,18.80
2018-11-21T04:45:08.864Z,18.80
2018-11-21T04:47:37.238Z,18.80
2018-11-21T04:50:06.340Z,18.80
2018-11-21T04:52:34.656Z,18.80
2018-11-21T04:55:03.193Z,18.80
2018-11-21T04:57:31.528Z,18.70
2018-11-21T04:59:59.879Z,18.70
2018-11-21T05:02:28.252Z,18.70
2018-11-21T05:04:56.627Z,18.70
2018-11-21T05:07:25.315Z,18.70
2018-11-21T05:09:53.801Z,18.70
2018-11-21T05:12:22.210Z,18.70
2018-11-21T05:14:50.600Z,18.70
2018-11-21T05:17:19.083Z,18.60
2018-11-21T05:19:47.468Z,18.60
2018-11-21T05:22:15.881Z,18.60
2018-11-21T05:24:44.358Z,18.60
2018-11-21T05:27:12.722Z,18.60
2018-11-21T05:29:41.161Z,18.60
2018-11-21T05:32:09.494Z,18.60
2018-11-21T05:34:37.850Z,18.60
2018-11-21T05:37:06.560Z,18.60
2018-11-21T05:39:34.940Z,18.50
2018-11-21T05:42:03.347Z,18.50
2018-11-21T05:44:31.810Z,18.50
2018-11-21T05:47:00.182Z,18.50
2018-11-21T05:49:28.557Z,18.50
2018-11-21T05:51:56.972Z,18.50
2018-11-21T05:54:25.343Z,18.50
2018-11-21T05:56:53.710Z,18.50
2018-11-21T05:59:22.131Z,18.50
2018-11-21T06:01:50.586Z,18.50
2018-11-21T06:04:19.816Z,18.50
2018-11-21T06:06:48.190Z,18.50
2018-11-21T06:09:16.587Z,18.50
2018-11-21T06:11:47.764Z,18.40
2018-11-21T06:14:16.259Z,18.40
2018-11-21T06:16:45.241Z,18.40
2018-11-21T06:19:13.612Z,18.40
2018-11-21T06:21:42.017Z,18.40
2018-11-21T06:24:10.710Z,18.40
2018-11-21T06:26:39.134Z,18.40
2018-11-21T06:29:07.535Z,18.30
2018-11-21T06:31:36.209Z,18.30
2018-11-21T06:34:04.561Z,18.30
2018-11-21T06:36:33.995Z,18.30
2018-11-21T06:39:02.390Z,18.30
2018-11-21T06:41:31.148Z,18.30
2018-11-21T06:44:00.263Z,18.30
2018-11-21T06:46:29.293Z,18.20
2018-11-21T06:48:57.673Z,18.20
2018-11-21T06:51:26.025Z,18.20
2018-11-21T06:53:54.367Z,18.20
2018-11-21T06:56:22.773Z,18.20
2018-11-21T06:58:55.106Z,18.20
2018-11-21T07:01:19.904Z,18.20
2018-11-21T07:03:48.303Z,18.20
2018-11-21T07:06:16.653Z,18.20
2018-11-21T07:08:45.072Z,18.20
2018-11-21T07:11:13.539Z,18.20
2018-11-21T07:13:42.232Z,18.20
2018-11-21T07:16:10.590Z,18.20
2018-11-21T07:18:39.562Z,18.20
2018-11-21T07:21:27.374Z,18.20
2018-11-21T07:23:55.808Z,18.30
2018-11-21T07:26:24.913Z,18.30
2018-11-21T07:28:53.531Z,18.50
2018-11-21T07:31:21.915Z,18.70
2018-11-21T07:33:50.450Z,18.80
2018-11-21T07:36:19.756Z,19.10
2018-11-21T07:38:48.388Z,19.40
2018-11-21T07:41:17.248Z,19.60
2018-11-21T07:43:45.672Z,19.80
2018-11-21T07:46:14.219Z,20.00
2018-11-21T07:48:42.634Z,20.20
2018-11-21T07:51:11.952Z,20.30
2018-11-21T07:53:40.373Z,20.50
2018-11-21T07:56:55.840Z,20.50
2018-11-21T07:59:24.571Z,20.70
2018-11-21T08:05:32.965Z,20.90
2018-11-21T08:08:31.900Z,21.00
2018-11-21T08:11:28.134Z,21.10
2018-11-21T08:17:40.097Z,21.20
2018-11-21T10:27:59.476Z,22.60
2018-11-21T10:30:36.845Z,22.50
2018-11-21T10:33:25.858Z,22.40
2018-11-21T10:36:13.020Z,22.30
2018-11-21T10:38:41.928Z,22.20
2018-11-21T10:41:31.332Z,22.10
2018-11-21T10:44:45.546Z,22.00
2018-11-21T10:47:42.918Z,22.00
2018-11-21T10:50:31.751Z,21.90
2018-11-21T10:53:09.550Z,21.90
2018-11-21T10:56:12.418Z,21.80
2018-11-21T10:58:46.168Z,21.80
2018-11-21T11:01:27.950Z,21.70
2018-11-21T11:04:11.697Z,21.60
2018-11-21T11:07:08.265Z,21.60
2018-11-21T11:09:55.812Z,21.60
2018-11-21T11:12:54.673Z,21.50
2018-11-21T11:15:53.333Z,21.50
2018-11-21T11:18:55.104Z,21.50
2018-11-21T11:21:43.168Z,21.40
2018-11-21T11:24:42.007Z,21.40
2018-11-21T11:27:51.681Z,21.40
2018-11-21T11:30:45.667Z,21.30
2018-11-21T11:34:05.744Z,21.20
2018-11-21T11:36:57.948Z,21.20
2018-11-21T11:44:19.115Z,21.10
2018-11-21T11:47:20.482Z,21.00
2018-11-21T11:50:42.855Z,21.00
2018-11-21T11:53:52.053Z,20.90
2018-11-21T11:56:39.934Z,20.90
2018-11-21T12:00:18.645Z,20.90
2018-11-21T12:03:57.862Z,20.80
2018-11-21T12:07:24.808Z,20.80
2018-11-21T12:11:02.241Z,20.80
2018-11-21T12:13:54.349Z,20.70
2018-11-21T12:21:10.133Z,20.70
2018-11-21T12:27:46.776Z,20.60
2018-11-21T12:31:19.045Z,20.60
2018-11-21T12:37:10.777Z,20.50
2018-11-21T12:40:34.648Z,20.50
2018-11-21T12:47:19.873Z,20.50
2018-11-21T12:50:50.490Z,20.40
2018-11-21T12:53:51.928Z,20.40
2018-11-21T12:56:52.439Z,20.40
2018-11-21T13:03:13.587Z,20.40
2018-11-21T13:06:01.643Z,20.30
2018-11-21T13:08:52.127Z,20.30
2018-11-21T13:11:53.033Z,20.30
2018-11-21T13:14:59.734Z,20.20
2018-11-21T17:18:03.606Z,18.90
2018-11-21T17:20:34.015Z,18.90
2018-11-21T17:23:03.469Z,18.90
2018-11-21T17:25:35.717Z,18.90
2018-11-21T17:29:19.724Z,18.90
2018-11-21T17:36:49.293Z,18.90
2018-11-21T17:39:35.125Z,18.90
2018-11-21T17:42:37.188Z,18.80
2018-11-21T17:45:34.169Z,18.90
2018-11-21T17:48:21.311Z,18.90
2018-11-21T17:51:06.223Z,19.00
2018-11-21T17:54:30.649Z,19.10
2018-11-21T17:57:18.635Z,19.20
2018-11-21T18:00:20.120Z,19.40
2018-11-21T18:03:35.566Z,19.60
2018-11-21T18:06:20.644Z,19.90
2018-11-21T18:08:51.110Z,20.20
2018-11-21T18:11:19.676Z,20.30
2018-11-21T18:13:48.075Z,20.50
2018-11-21T18:16:16.569Z,20.70
2018-11-21T18:18:45.008Z,20.80
2018-11-21T18:21:13.959Z,21.00
2018-11-21T18:23:41.941Z,21.10
2018-11-21T18:26:10.314Z,21.20
2018-11-21T18:28:38.698Z,21.30
2018-11-21T18:31:07.116Z,21.50
2018-11-21T18:33:35.492Z,21.60
2018-11-21T18:36:03.955Z,21.70
2018-11-21T18:38:32.319Z,21.80
2018-11-21T18:41:00.738Z,21.90
2018-11-21T18:43:29.075Z,22.00
2018-11-21T18:45:57.510Z,22.10
2018-11-21T18:48:25.891Z,22.20
2018-11-21T18:50:54.237Z,22.20
2018-11-21T18:53:22.629Z,22.30
2018-11-21T18:55:57.703Z,22.40
2018-11-21T18:58:38.521Z,22.40
2018-11-21T19:01:08.778Z,22.40
